Time;durP1;ratioP1;P1;durP2;ratioP2;P2;SDS_P1;SDS_P2;PMS_P1;PMS_P2;Temp;Humidity;BMP_temperature;BMP_pressure;BME280_temperature;BME280_humidity;BME280_pressure;Samples;Min_cycle;Max_cycle;Signal;HPM_P1;HPM_P2
2024/02/09 00:00:30;;;;;;;14.37;3.33;;;11.60;98.00;;;;;;5073591;28;20467;-71
2024/02/09 00:03:00;;;;;;;11.40;3.20;;;11.50;98.00;;;;;;5073594;28;20868;-71
2024/02/09 00:05:27;;;;;;;5.93;2.63;;;11.50;98.00;;;;;;5073011;28;20566;-72
2024/02/09 00:07:56;;;;;;;7.57;2.80;;;11.50;98.00;;;;;;5073342;28;20471;-71
2024/02/09 00:10:23;;;;;;;7.20;2.90;;;11.50;98.00;;;;;;5073115;28;20452;-72
2024/02/09 00:12:51;;;;;;;14.13;2.90;;;11.50;98.00;;;;;;5073167;28;20477;-71
2024/02/09 00:15:20;;;;;;;7.07;2.83;;;11.60;98.00;;;;;;5073099;28;20486;-72
2024/02/09 00:17:48;;;;;;;14.87;3.27;;;11.50;98.00;;;;;;5072877;28;20520;-71
2024/02/09 00:20:15;;;;;;;10.20;2.80;;;11.60;98.00;;;;;;5072965;28;20465;-71
2024/02/09 00:22:43;;;;;;;5.53;2.77;;;11.60;98.00;;;;;;5073122;28;20456;-71
2024/02/09 00:25:11;;;;;;;3.73;2.43;;;11.60;98.00;;;;;;5072801;28;20490;-72
2024/02/09 00:27:38;;;;;;;8.33;2.83;;;11.60;98.00;;;;;;5069443;28;20511;-71
2024/02/09 00:30:10;;;;;;;7.43;2.50;;;11.70;98.00;;;;;;5073069;28;20453;-72
2024/02/09 00:32:39;;;;;;;9.40;2.80;;;11.60;98.00;;;;;;5072492;28;20458;-72
2024/02/09 00:35:07;;;;;;;9.50;2.60;;;11.60;98.00;;;;;;5072598;28;20950;-71
2024/02/09 00:37:38;;;;;;;6.90;2.77;;;11.50;98.00;;;;;;5072666;28;20453;-71
2024/02/09 00:40:06;;;;;;;8.73;3.03;;;11.50;98.00;;;;;;5072527;28;20446;-72
2024/02/09 00:42:34;;;;;;;7.77;2.57;;;11.60;98.00;;;;;;5072418;28;20480;-71
2024/02/09 00:45:02;;;;;;;7.57;2.60;;;11.60;98.00;;;;;;5072808;28;20471;-71
2024/02/09 00:47:29;;;;;;;6.77;2.47;;;11.60;98.00;;;;;;5072294;28;20452;-71
2024/02/09 00:49:58;;;;;;;9.77;2.70;;;11.60;98.00;;;;;;5072430;28;20478;-71
2024/02/09 00:52:27;;;;;;;6.80;2.43;;;11.60;98.00;;;;;;5072223;28;20510;-71
2024/02/09 00:54:55;;;;;;;7.20;2.67;;;11.60;98.00;;;;;;5072357;28;20963;-71
2024/02/09 00:57:22;;;;;;;14.83;2.77;;;11.60;98.00;;;;;;5072177;28;20489;-71
2024/02/09 00:59:50;;;;;;;6.63;2.33;;;11.50;98.00;;;;;;5072256;28;20447;-71
2024/02/09 01:02:18;;;;;;;6.00;2.60;;;11.50;98.00;;;;;;5072104;28;20870;-71
2024/02/09 01:04:45;;;;;;;12.37;3.27;;;11.60;98.00;;;;;;5072082;28;20471;-72
2024/02/09 01:07:14;;;;;;;5.03;2.30;;;11.70;98.00;;;;;;5071516;28;20461;-71
2024/02/09 01:09:41;;;;;;;9.00;2.67;;;11.60;98.00;;;;;;5072248;28;20452;-71
2024/02/09 02:45:12;;;;;;;6.73;2.07;;;11.50;98.00;;;;;;5075033;28;21038;-71
2024/02/09 02:47:40;;;;;;;5.93;2.03;;;11.50;98.00;;;;;;5074614;28;20517;-72
2024/02/09 03:06:33;;;;;;;3.30;2.00;;;11.50;98.00;;;;;;5073485;28;20580;-71
2024/02/09 03:09:00;;;;;;;8.97;2.27;;;11.50;98.00;;;;;;5074302;28;20464;-71
2024/02/09 03:11:27;;;;;;;7.10;2.37;;;11.50;98.00;;;;;;5074320;28;20462;-71
2024/02/09 03:13:54;;;;;;;4.70;2.50;;;11.50;98.00;;;;;;5074208;28;20451;-71
2024/02/09 03:16:23;;;;;;;3.87;2.20;;;11.40;98.00;;;;;;5074120;28;20478;-71
2024/02/09 03:18:50;;;;;;;3.60;2.10;;;11.40;98.00;;;;;;5073853;28;20463;-71
2024/02/09 03:21:23;;;;;;;5.47;2.40;;;11.30;98.00;;;;;;5074246;28;20451;-71
2024/02/09 03:23:52;;;;;;;4.30;2.10;;;11.30;98.00;;;;;;5074088;28;20667;-71
2024/02/09 03:26:22;;;;;;;4.23;2.63;;;11.20;98.00;;;;;;5055994;28;20464;-71
2024/02/09 03:28:49;;;;;;;3.93;2.23;;;11.20;98.00;;;;;;5074618;28;20457;-71
2024/02/09 03:31:17;;;;;;;10.17;2.77;;;11.20;98.00;;;;;;5074586;28;20459;-71
2024/02/09 03:33:45;;;;;;;6.40;2.80;;;11.20;98.00;;;;;;5073975;28;20459;-71
2024/02/09 03:36:13;;;;;;;7.80;2.60;;;11.20;98.00;;;;;;5073858;28;20492;-71
2024/02/09 03:38:41;;;;;;;2.83;1.90;;;11.10;98.00;;;;;;5072842;28;20451;-71
2024/02/09 03:41:08;;;;;;;8.07;2.77;;;11.20;98.00;;;;;;5056125;28;20971;-71
2024/02/09 03:43:35;;;;;;;7.20;2.27;;;11.20;98.00;;;;;;5073427;28;20971;-71
2024/02/09 03:46:03;;;;;;;5.23;2.27;;;11.20;98.00;;;;;;5073593;28;20450;-71
2024/02/09 03:48:30;;;;;;;5.73;2.87;;;11.20;98.00;;;;;;5073279;28;20985;-71
2024/02/09 03:51:01;;;;;;;9.63;2.10;;;11.30;98.00;;;;;;5073622;28;20457;-71
2024/02/09 03:53:30;;;;;;;8.43;2.70;;;11.30;98.00;;;;;;5073536;28;20858;-71
2024/02/09 03:55:57;;;;;;;5.47;3.00;;;11.30;98.00;;;;;;5073520;28;20604;-71
2024/02/09 03:58:24;;;;;;;3.93;2.00;;;11.40;98.00;;;;;;5073389;28;20456;-71
2024/02/09 04:00:51;;;;;;;4.97;2.03;;;11.40;98.00;;;;;;5073491;28;20452;-71
2024/02/09 04:03:18;;;;;;;4.60;2.23;;;11.40;98.00;;;;;;5073354;28;20449;-71
2024/02/09 04:05:46;;;;;;;3.47;2.27;;;11.30;98.00;;;;;;5073330;28;20458;-71
2024/02/09 04:08:15;;;;;;;6.37;2.30;;;11.30;98.00;;;;;;5073238;28;20484;-71
2024/02/09 04:10:42;;;;;;;2.80;1.80;;;11.30;98.00;;;;;;5073275;28;20474;-71
2024/02/09 04:13:09;;;;;;;5.40;2.07;;;11.30;98.00;;;;;;5073143;28;20457;-71
2024/02/09 04:15:36;;;;;;;5.10;1.97;;;11.30;98.00;;;;;;5072695;28;20535;-71
2024/02/09 04:18:06;;;;;;;5.50;2.17;;;11.30;98.00;;;;;;5073068;28;20489;-71
2024/02/09 04:20:33;;;;;;;3.83;2.00;;;11.30;98.00;;;;;;5072967;28;20819;-71
2024/02/09 04:23:00;;;;;;;4.07;2.27;;;11.20;98.00;;;;;;5073000;28;20577;-71
2024/02/09 04:25:28;;;;;;;2.80;2.00;;;11.20;98.00;;;;;;5072895;28;20949;-71
2024/02/09 04:28:03;;;;;;;4.93;2.20;;;11.20;98.00;;;;;;5072810;28;20467;-71
2024/02/09 04:30:30;;;;;;;6.13;1.90;;;11.20;98.00;;;;;;5071681;28;20453;-71
2024/02/09 04:32:57;;;;;;;6.17;2.50;;;11.30;98.00;;;;;;5072515;28;20474;-71
2024/02/09 04:35:24;;;;;;;2.80;2.00;;;11.30;98.00;;;;;;5072871;28;20453;-71
2024/02/09 04:37:51;;;;;;;5.73;2.00;;;11.20;98.00;;;;;;5072837;28;20481;-71
2024/02/09 04:40:20;;;;;;;2.90;1.80;;;11.20;98.00;;;;;;5072756;28;20805;-71
2024/02/09 04:42:48;;;;;;;2.40;1.90;;;11.20;98.00;;;;;;5072408;28;20460;-71
2024/02/09 04:45:16;;;;;;;2.83;1.83;;;11.20;98.00;;;;;;5072616;28;20458;-71
2024/02/09 04:47:43;;;;;;;3.00;2.00;;;11.20;98.00;;;;;;5072392;28;20451;-71
2024/02/09 04:50:11;;;;;;;7.50;2.10;;;11.30;98.00;;;;;;5057299;28;20618;-71
2024/02/09 04:52:39;;;;;;;4.10;1.83;;;11.30;98.00;;;;;;5050329;28;20510;-71
2024/02/09 04:55:06;;;;;;;4.53;1.93;;;11.20;98.00;;;;;;5053125;28;20446;-71
2024/02/09 04:57:33;;;;;;;3.97;2.00;;;11.20;98.00;;;;;;5053315;28;20504;-71
2024/02/09 05:00:02;;;;;;;5.37;2.50;;;11.20;98.00;;;;;;5052847;28;20463;-71
2024/02/09 05:02:33;;;;;;;4.37;2.00;;;11.20;98.00;;;;;;5053379;28;20465;-71
2024/02/09 05:05:00;;;;;;;4.30;2.07;;;11.10;98.00;;;;;;5052715;28;20456;-71
2024/02/09 05:07:28;;;;;;;2.70;1.80;;;11.10;98.00;;;;;;5052226;28;20473;-71
2024/02/09 05:09:55;;;;;;;2.47;2.30;;;11.10;98.00;;;;;;5052099;28;20975;-71
2024/02/09 05:12:23;;;;;;;3.00;1.97;;;11.20;98.00;;;;;;5052281;28;20459;-71
2024/02/09 05:14:54;;;;;;;3.43;1.87;;;11.10;98.00;;;;;;5052134;28;20454;-71
2024/02/09 05:17:23;;;;;;;2.47;1.80;;;11.10;98.00;;;;;;5052225;28;20494;-71
2024/02/09 05:19:56;;;;;;;3.77;2.30;;;11.10;98.00;;;;;;5052244;28;20460;-71
2024/02/09 05:22:24;;;;;;;3.30;1.70;;;11.30;98.00;;;;;;5052217;28;20459;-71
2024/02/09 05:24:51;;;;;;;6.40;2.07;;;11.30;98.00;;;;;;5052419;28;20465;-71
2024/02/09 05:27:20;;;;;;;2.33;1.80;;;11.20;98.00;;;;;;5050927;28;20459;-71
2024/02/09 05:29:48;;;;;;;1.73;1.57;;;11.30;98.00;;;;;;5053178;28;20452;-71
2024/02/09 05:32:15;;;;;;;2.20;1.63;;;11.40;98.00;;;;;;5051489;28;20464;-71
2024/02/09 05:34:45;;;;;;;3.47;2.10;;;11.20;98.00;;;;;;5051709;28;20458;-71
2024/02/09 05:37:15;;;;;;;3.43;1.70;;;11.20;98.00;;;;;;5051633;28;20489;-71
2024/02/09 05:39:44;;;;;;;3.70;1.70;;;11.10;98.00;;;;;;5051652;28;20461;-71
2024/02/09 05:42:12;;;;;;;3.20;2.00;;;11.10;98.00;;;;;;5051583;28;20462;-71
2024/02/09 05:44:39;;;;;;;2.33;1.67;;;11.10;98.00;;;;;;5051391;28;20792;-71
2024/02/09 05:47:06;;;;;;;2.10;1.63;;;11.10;98.00;;;;;;5051555;28;20459;-71
2024/02/09 05:49:34;;;;;;;5.87;2.07;;;11.10;98.00;;;;;;5051644;28;20813;-71
2024/02/09 05:52:02;;;;;;;2.13;1.60;;;11.10;98.00;;;;;;5051357;28;20456;-71
2024/02/09 05:54:29;;;;;;;6.17;2.00;;;11.10;98.00;;;;;;5051402;28;20476;-71
2024/02/09 05:56:56;;;;;;;2.60;1.67;;;11.20;98.00;;;;;;5051198;28;20490;-71
2024/02/09 05:59:25;;;;;;;4.97;1.90;;;11.30;98.00;;;;;;5051572;28;20456;-71
2024/02/09 06:01:53;;;;;;;4.50;1.53;;;11.30;98.00;;;;;;5050702;28;20443;-71
2024/02/09 06:04:21;;;;;;;4.43;1.80;;;11.30;98.00;;;;;;5051235;28;20451;-71
2024/02/09 06:06:48;;;;;;;2.23;1.70;;;11.30;98.00;;;;;;5051253;28;20456;-71
2024/02/09 06:09:17;;;;;;;2.10;1.50;;;11.30;98.00;;;;;;5051140;28;20989;-71
2024/02/09 06:11:44;;;;;;;3.27;1.93;;;11.30;98.00;;;;;;5050844;28;20552;-71
2024/02/09 06:14:13;;;;;;;2.23;1.70;;;11.30;98.00;;;;;;5050608;28;20444;-71
2024/02/09 06:16:40;;;;;;;1.90;1.50;;;11.40;98.00;;;;;;5050873;28;20955;-71
2024/02/09 06:19:08;;;;;;;3.70;1.80;;;11.40;98.00;;;;;;5051169;28;20460;-71
2024/02/09 06:21:37;;;;;;;3.73;1.80;;;11.40;98.00;;;;;;5051043;28;20446;-71
2024/02/09 06:24:04;;;;;;;4.00;1.73;;;11.40;98.00;;;;;;5050966;28;20458;-71
2024/02/09 06:26:34;;;;;;;3.00;2.10;;;11.40;98.00;;;;;;5051142;28;20452;-71
2024/02/09 06:29:03;;;;;;;2.73;1.60;;;11.50;98.00;;;;;;5050922;28;20475;-71
2024/02/09 06:31:31;;;;;;;3.13;1.60;;;11.50;98.00;;;;;;5050700;28;20464;-71
2024/02/09 06:33:59;;;;;;;3.20;1.63;;;11.40;98.00;;;;;;5051022;28;20539;-71
2024/02/09 06:36:26;;;;;;;3.07;1.90;;;11.40;98.00;;;;;;5051028;28;20476;-71
2024/02/09 06:38:53;;;;;;;2.00;1.47;;;11.40;98.00;;;;;;5050698;28;20496;-71
2024/02/09 06:41:20;;;;;;;2.77;1.50;;;11.30;98.00;;;;;;5050892;28;20857;-71
2024/02/09 06:43:51;;;;;;;2.07;1.70;;;11.30;98.00;;;;;;5050786;28;20484;-71
2024/02/09 06:46:19;;;;;;;3.27;1.77;;;11.40;98.00;;;;;;5050782;28;20542;-71
2024/02/09 06:48:46;;;;;;;1.70;1.57;;;11.30;98.00;;;;;;5050817;28;20461;-71
2024/02/09 06:51:14;;;;;;;1.83;1.60;;;11.20;98.00;;;;;;5051013;28;20511;-71
2024/02/09 06:53:41;;;;;;;2.57;1.77;;;11.20;98.00;;;;;;5050681;28;20450;-71
2024/02/09 06:56:11;;;;;;;3.60;1.70;;;11.10;98.00;;;;;;5050718;28;20463;-71
2024/02/09 06:58:39;;;;;;;5.40;1.80;;;11.00;98.00;;;;;;5050650;28;20493;-71
2024/02/09 07:01:11;;;;;;;1.97;1.70;;;11.00;98.00;;;;;;5050832;28;20446;-76
2024/02/09 07:03:39;;;;;;;2.50;1.67;;;11.00;98.00;;;;;;5050654;28;20945;-75
2024/02/09 07:06:07;;;;;;;1.63;1.50;;;11.00;98.00;;;;;;5050805;28;20451;-76
2024/02/09 07:08:39;;;;;;;2.80;1.97;;;11.00;98.00;;;;;;5050766;28;20456;-76
2024/02/09 07:11:07;;;;;;;3.40;1.97;;;11.00;98.00;;;;;;5050646;28;20462;-76
2024/02/09 07:13:35;;;;;;;3.33;1.63;;;11.00;98.00;;;;;;5050728;28;20539;-76
2024/02/09 07:16:04;;;;;;;2.50;1.77;;;11.00;98.00;;;;;;5054644;28;20449;-77
2024/02/09 07:18:38;;;;;;;3.80;1.80;;;10.90;98.00;;;;;;5054310;28;20484;-75
2024/02/09 07:21:05;;;;;;;4.73;2.20;;;11.00;98.00;;;;;;5053781;28;20504;-75
2024/02/09 07:23:33;;;;;;;4.83;2.00;;;11.10;98.00;;;;;;5054055;28;20804;-74
2024/02/09 07:26:00;;;;;;;2.60;1.80;;;11.00;98.00;;;;;;5054401;28;20465;-75
2024/02/09 07:28:27;;;;;;;2.67;1.90;;;10.90;98.00;;;;;;5054320;28;20458;-73
2024/02/09 07:30:55;;;;;;;2.20;1.87;;;10.90;98.00;;;;;;5054899;28;20800;-76
2024/02/09 07:33:22;;;;;;;4.03;1.90;;;10.90;98.00;;;;;;5053695;28;20464;-75
2024/02/09 07:35:51;;;;;;;4.40;1.73;;;10.90;98.00;;;;;;5053577;28;20461;-74
2024/02/09 07:38:18;;;;;;;3.30;1.80;;;10.90;98.00;;;;;;5053792;28;20880;-75
2024/02/09 07:40:46;;;;;;;2.60;1.80;;;10.90;98.00;;;;;;5053839;28;20943;-75
2024/02/09 07:43:13;;;;;;;2.33;1.90;;;10.90;98.00;;;;;;5053736;28;20456;-75
2024/02/09 07:45:42;;;;;;;5.00;2.00;;;11.00;98.00;;;;;;5053540;28;20740;-74
2024/02/09 07:48:09;;;;;;;9.10;4.00;;;10.90;98.00;;;;;;5053758;28;20825;-74
2024/02/09 07:50:40;;;;;;;11.67;5.73;;;11.00;98.00;;;;;;5053752;28;20460;-75
2024/02/09 07:53:09;;;;;;;6.33;3.70;;;10.90;98.00;;;;;;5053583;28;20459;-75
2024/02/09 07:55:36;;;;;;;5.23;3.13;;;10.90;98.00;;;;;;5053491;28;20461;-74
2024/02/09 07:58:03;;;;;;;5.43;3.10;;;10.80;98.00;;;;;;5063192;28;20487;-74
2024/02/09 08:00:32;;;;;;;5.00;2.80;;;10.70;98.00;;;;;;5073426;28;20454;-75
2024/02/09 08:02:59;;;;;;;3.47;1.93;;;10.60;98.00;;;;;;5073337;28;20485;-75
2024/02/09 08:05:26;;;;;;;2.90;2.10;;;10.60;98.00;;;;;;5073290;28;20456;-75
2024/02/09 08:07:53;;;;;;;4.53;2.30;;;10.60;98.00;;;;;;5072626;28;20464;-74
2024/02/09 08:10:22;;;;;;;4.33;2.33;;;10.60;98.00;;;;;;5073069;28;20452;-75
2024/02/09 08:12:49;;;;;;;6.50;2.97;;;10.60;98.00;;;;;;5072961;28;20452;-74
2024/02/09 08:15:16;;;;;;;4.17;2.70;;;10.60;98.00;;;;;;5073144;28;20466;-74
2024/02/09 08:17:48;;;;;;;4.03;2.30;;;10.70;98.00;;;;;;5073097;28;20491;-75
2024/02/09 08:20:15;;;;;;;6.03;2.20;;;10.70;98.00;;;;;;5073086;28;21028;-75
2024/02/09 08:22:45;;;;;;;2.40;1.80;;;10.70;98.00;;;;;;5072740;28;20452;-75
2024/02/09 08:25:13;;;;;;;3.00;1.70;;;10.70;98.00;;;;;;5072955;28;20464;-75
2024/02/09 08:27:42;;;;;;;4.67;2.00;;;10.80;98.00;;;;;;5072874;28;20514;-75
2024/02/09 08:30:10;;;;;;;2.40;1.90;;;10.80;98.00;;;;;;5072847;28;20461;-74
2024/02/09 08:32:39;;;;;;;3.50;2.30;;;10.70;98.00;;;;;;5073025;28;20465;-74
2024/02/09 08:35:07;;;;;;;2.13;1.80;;;10.80;98.00;;;;;;5073734;28;20456;-74
2024/02/09 08:37:35;;;;;;;3.40;2.13;;;10.70;98.00;;;;;;5072787;28;20904;-74
2024/02/09 08:40:03;;;;;;;2.83;1.97;;;10.80;98.00;;;;;;5073532;28;20457;-73
2024/02/09 08:42:30;;;;;;;3.63;2.20;;;10.70;98.00;;;;;;5073267;28;20486;-73
2024/02/09 08:44:59;;;;;;;4.37;2.30;;;10.80;98.00;;;;;;5073575;28;20452;-74
2024/02/09 08:47:26;;;;;;;2.60;1.73;;;10.80;98.00;;;;;;5073385;28;20465;-73
2024/02/09 08:49:53;;;;;;;3.40;2.40;;;10.90;98.00;;;;;;5073097;28;20454;-74
2024/02/09 08:52:20;;;;;;;4.60;2.60;;;11.10;98.00;;;;;;5073297;28;20447;-74
2024/02/09 08:54:47;;;;;;;2.83;2.07;;;11.30;98.00;;;;;;5054850;28;20464;-75
2024/02/09 08:57:15;;;;;;;3.83;2.30;;;11.30;98.00;;;;;;5073332;28;20478;-73
2024/02/09 08:59:42;;;;;;;8.33;3.00;;;11.30;98.00;;;;;;5073271;28;20796;-74
2024/02/09 09:02:11;;;;;;;10.30;3.53;;;11.30;98.00;;;;;;5073040;28;20955;-74
2024/02/09 09:04:38;;;;;;;9.80;2.73;;;11.30;98.00;;;;;;5072865;28;20514;-74
2024/02/09 09:07:05;;;;;;;3.90;2.00;;;11.30;98.00;;;;;;5072488;28;20478;-73
2024/02/09 09:09:33;;;;;;;1.97;1.80;;;11.30;98.00;;;;;;5072857;28;20454;-74
2024/02/09 09:11:59;;;;;;;3.93;2.20;;;11.30;98.00;;;;;;5055342;28;20461;-75
2024/02/09 09:14:26;;;;;;;2.70;1.80;;;11.40;98.00;;;;;;5072567;28;20475;-73
2024/02/09 09:16:53;;;;;;;3.17;2.27;;;11.50;98.00;;;;;;5072833;28;20458;-75
2024/02/09 09:19:22;;;;;;;6.83;2.17;;;11.80;98.00;;;;;;5072623;28;20482;-73
2024/02/09 09:21:49;;;;;;;2.90;2.17;;;12.10;98.00;;;;;;5072231;28;20951;-74
2024/02/09 09:24:16;;;;;;;5.10;3.23;;;12.20;98.00;;;;;;5072268;28;20463;-75
2024/02/09 09:26:43;;;;;;;8.43;4.27;;;12.40;98.00;;;;;;5072071;28;20456;-74
2024/02/09 09:29:12;;;;;;;8.47;4.20;;;12.40;98.00;;;;;;5071980;28;20542;-75
2024/02/09 09:31:40;;;;;;;6.50;3.60;;;12.30;98.00;;;;;;5072458;28;20465;-75
2024/02/09 09:34:07;;;;;;;9.70;4.37;;;12.30;98.00;;;;;;5072511;28;20494;-73
2024/02/09 09:36:35;;;;;;;8.70;3.90;;;12.50;98.00;;;;;;5071588;28;20458;-74
2024/02/09 09:39:06;;;;;;;8.37;3.50;;;12.60;98.00;;;;;;5072128;28;20486;-75
2024/02/09 09:41:36;;;;;;;14.07;3.43;;;12.50;98.00;;;;;;5072215;28;20458;-75
2024/02/09 09:44:03;;;;;;;8.40;4.00;;;12.50;98.00;;;;;;5071945;28;20797;-75
2024/02/09 09:46:34;;;;;;;8.83;4.57;;;12.60;98.00;;;;;;5072119;28;20446;-75
2024/02/09 09:49:04;;;;;;;7.97;4.50;;;12.60;98.00;;;;;;5072028;28;20453;-74
2024/02/09 09:51:44;;;;;;;7.57;3.90;;;12.60;98.00;;;;;;5072078;28;20462;-74
2024/02/09 09:54:15;;;;;;;8.07;3.90;;;12.70;98.00;;;;;;5055647;28;20465;-75
2024/02/09 09:56:45;;;;;;;8.90;4.13;;;12.80;98.00;;;;;;5072014;28;20458;-75
2024/02/09 09:59:12;;;;;;;9.30;4.43;;;12.90;98.00;;;;;;5072018;28;20494;-75
2024/02/09 10:01:40;;;;;;;7.13;3.87;;;13.00;98.00;;;;;;5071997;28;20448;-73
2024/02/09 10:04:07;;;;;;;8.00;4.50;;;13.20;98.00;;;;;;5072086;28;20457;-75
2024/02/09 10:06:35;;;;;;;7.67;3.93;;;13.30;98.00;;;;;;5072024;28;20455;-73
2024/02/09 10:09:08;;;;;;;8.63;4.00;;;13.30;98.00;;;;;;5071961;28;20457;-75
2024/02/09 10:11:37;;;;;;;8.60;3.93;;;13.50;98.00;;;;;;5072006;28;20567;-75
2024/02/09 10:14:12;;;;;;;7.60;3.97;;;13.70;98.00;;;;;;5071856;28;20463;-74
2024/02/09 10:16:40;;;;;;;6.77;3.83;;;13.60;98.00;;;;;;5071919;28;20803;-74
2024/02/09 10:19:07;;;;;;;6.50;4.00;;;13.60;98.00;;;;;;5071812;28;20492;-75
2024/02/09 10:21:35;;;;;;;6.10;3.77;;;13.70;98.00;;;;;;5071637;28;20459;-75
2024/02/09 10:24:02;;;;;;;6.10;3.53;;;13.80;98.00;;;;;;5071838;28;20856;-74
2024/02/09 10:26:31;;;;;;;5.73;3.30;;;13.80;98.00;;;;;;5070664;28;20462;-75
2024/02/09 10:29:00;;;;;;;6.97;3.80;;;13.90;98.00;;;;;;5070581;28;20470;-75
2024/02/09 10:31:30;;;;;;;12.00;4.00;;;13.90;98.00;;;;;;5070879;28;20459;-75
2024/02/09 10:33:57;;;;;;;7.23;4.00;;;13.70;98.00;;;;;;5071131;28;20508;-75
2024/02/09 10:36:25;;;;;;;6.33;3.70;;;13.70;98.00;;;;;;5071693;28;20960;-73
2024/02/09 10:38:52;;;;;;;10.13;4.13;;;13.70;98.00;;;;;;5071438;28;21056;-74
2024/02/09 10:41:19;;;;;;;9.43;4.13;;;13.70;98.00;;;;;;5071743;28;20456;-74
2024/02/09 10:43:51;;;;;;;5.07;2.80;;;13.60;98.00;;;;;;5071360;28;20467;-75
2024/02/09 10:46:23;;;;;;;10.30;4.10;;;13.60;98.00;;;;;;5071820;28;20451;-74
2024/02/09 10:48:54;;;;;;;12.20;4.10;;;13.60;98.00;;;;;;5073687;28;20494;-73
2024/02/09 10:51:27;;;;;;;5.80;3.53;;;13.60;98.00;;;;;;5075834;28;20783;-75
2024/02/09 10:53:57;;;;;;;5.57;3.47;;;13.60;98.00;;;;;;5074909;28;20530;-75
2024/02/09 10:56:27;;;;;;;7.87;3.50;;;13.60;98.00;;;;;;5075210;28;20464;-74
2024/02/09 10:58:56;;;;;;;6.53;3.13;;;13.70;98.00;;;;;;5075479;28;20497;-74
2024/02/09 11:01:28;;;;;;;5.83;3.70;;;13.80;98.00;;;;;;5075275;28;20447;-75
2024/02/09 11:03:55;;;;;;;5.73;3.37;;;13.90;98.00;;;;;;5074969;28;20449;-74
2024/02/09 11:06:24;;;;;;;4.57;2.90;;;14.00;98.00;;;;;;5075158;28;20798;-74
2024/02/09 11:08:52;;;;;;;7.10;3.43;;;14.00;98.00;;;;;;5075351;28;20484;-74
2024/02/09 11:11:20;;;;;;;4.83;3.23;;;14.00;98.00;;;;;;5075377;28;20464;-74
2024/02/09 11:13:50;;;;;;;7.27;3.70;;;14.10;98.00;;;;;;5074704;28;20492;-75
2024/02/09 11:16:17;;;;;;;4.13;2.80;;;14.10;98.00;;;;;;5074866;28;20471;-75
2024/02/09 11:18:49;;;;;;;5.10;2.20;;;14.20;98.00;;;;;;5057070;28;20484;-74
2024/02/09 11:21:16;;;;;;;4.97;2.40;;;14.40;98.00;;;;;;5075088;28;20497;-73
2024/02/09 11:23:43;;;;;;;8.33;2.10;;;14.50;98.00;;;;;;5074613;28;20467;-75
2024/02/09 11:26:11;;;;;;;4.87;2.40;;;14.60;98.00;;;;;;5074886;28;20463;-75
2024/02/09 11:28:38;;;;;;;2.63;1.90;;;14.70;98.00;;;;;;5074575;28;20513;-75
2024/02/09 11:31:12;;;;;;;4.17;1.70;;;14.80;98.00;;;;;;5074384;28;20456;-75
2024/02/09 11:33:39;;;;;;;5.80;2.13;;;14.80;98.00;;;;;;5056932;28;20455;-74
2024/02/09 11:36:10;;;;;;;2.80;1.70;;;14.80;98.00;;;;;;5074749;28;20881;-75
2024/02/09 11:38:37;;;;;;;3.37;1.83;;;14.80;98.00;;;;;;5074373;28;20491;-73
2024/02/09 11:41:04;;;;;;;2.30;1.70;;;14.80;98.00;;;;;;5074497;28;20467;-74
2024/02/09 11:43:33;;;;;;;4.53;2.10;;;14.90;98.00;;;;;;5074346;28;20466;-74
2024/02/09 11:46:02;;;;;;;3.63;2.33;;;14.80;98.00;;;;;;5074341;28;20447;-75
2024/02/09 11:48:30;;;;;;;3.63;2.03;;;14.70;98.00;;;;;;5074237;28;20980;-71
2024/02/09 11:51:00;;;;;;;3.10;2.17;;;14.80;98.00;;;;;;5074515;28;20476;-72
2024/02/09 11:53:32;;;;;;;3.50;2.10;;;14.80;98.00;;;;;;5074297;28;20464;-73
2024/02/09 11:56:00;;;;;;;5.20;2.30;;;14.70;98.00;;;;;;5074422;28;20502;-73
2024/02/09 11:58:29;;;;;;;5.13;1.90;;;14.60;98.00;;;;;;5074010;28;20464;-69
2024/02/09 12:00:57;;;;;;;2.73;1.90;;;14.60;98.00;;;;;;5073797;28;20483;-71
2024/02/09 12:03:24;;;;;;;8.33;2.30;;;14.70;98.00;;;;;;5074502;28;20464;-71
2024/02/09 12:05:52;;;;;;;2.37;1.83;;;14.60;98.00;;;;;;5074370;28;20449;-73
2024/02/09 12:08:19;;;;;;;2.43;1.67;;;14.60;98.00;;;;;;5074244;28;20945;-73
2024/02/09 12:10:50;;;;;;;2.60;1.70;;;14.70;98.00;;;;;;5074219;28;20510;-72
2024/02/09 12:13:18;;;;;;;2.33;1.53;;;14.70;98.00;;;;;;5074419;28;20606;-73
2024/02/09 12:15:46;;;;;;;4.80;1.73;;;14.80;98.00;;;;;;5074101;28;20460;-71
2024/02/09 12:18:13;;;;;;;1.97;1.60;;;14.70;98.00;;;;;;5074146;28;20489;-71
2024/02/09 12:20:41;;;;;;;2.13;1.60;;;14.70;98.00;;;;;;5074180;28;20491;-71
2024/02/09 12:23:08;;;;;;;2.20;1.80;;;14.80;98.00;;;;;;5074012;28;20544;-72
2024/02/09 12:25:37;;;;;;;6.00;2.00;;;14.80;98.00;;;;;;5073940;28;20795;-72
2024/02/09 12:28:09;;;;;;;4.40;2.10;;;14.80;98.00;;;;;;5073828;28;20935;-71
2024/02/09 12:30:36;;;;;;;2.17;1.80;;;14.70;98.00;;;;;;5073988;28;20972;-73
2024/02/09 12:33:05;;;;;;;3.13;1.67;;;14.70;98.00;;;;;;5073536;28;20452;-71
2024/02/09 12:35:32;;;;;;;2.93;2.17;;;14.70;98.00;;;;;;5073640;28;20586;-72
2024/02/09 12:38:01;;;;;;;2.23;1.70;;;14.80;98.00;;;;;;5073669;28;20456;-71
2024/02/09 12:40:28;;;;;;;4.70;1.93;;;14.70;98.00;;;;;;5074043;28;20468;-71
2024/02/09 12:42:55;;;;;;;3.17;1.70;;;14.70;98.00;;;;;;5073724;28;20453;-73
2024/02/09 12:45:28;;;;;;;3.57;1.90;;;14.70;98.00;;;;;;5073150;28;20793;-73
2024/02/09 12:47:57;;;;;;;2.67;1.63;;;14.70;98.00;;;;;;5073351;28;20460;-71
2024/02/09 12:50:26;;;;;;;4.43;1.67;;;14.70;98.00;;;;;;5073454;28;20534;-72
2024/02/09 12:52:54;;;;;;;3.30;1.60;;;14.60;98.00;;;;;;5073067;28;20876;-74
2024/02/09 12:55:27;;;;;;;5.30;1.80;;;14.50;98.00;;;;;;5073177;28;20464;-71
2024/02/09 12:57:54;;;;;;;4.50;2.00;;;14.50;98.00;;;;;;5072848;28;20445;-71
2024/02/09 13:00:23;;;;;;;3.00;1.93;;;14.50;98.00;;;;;;5072975;28;20489;-74
2024/02/09 13:02:50;;;;;;;4.63;2.00;;;14.50;98.00;;;;;;5072825;28;20459;-72
2024/02/09 13:05:17;;;;;;;4.07;2.20;;;14.50;98.00;;;;;;5072917;28;20453;-73
2024/02/09 13:07:45;;;;;;;3.33;1.90;;;14.50;98.00;;;;;;5072752;28;20452;-71
2024/02/09 13:10:12;;;;;;;2.47;1.60;;;14.50;98.00;;;;;;5055348;28;20449;-74
2024/02/09 13:12:39;;;;;;;2.43;1.83;;;14.40;98.00;;;;;;5071779;28;20459;-74
2024/02/09 13:15:07;;;;;;;4.40;1.97;;;14.30;98.00;;;;;;5072992;28;20938;-73
2024/02/09 13:17:37;;;;;;;7.57;2.07;;;14.20;98.00;;;;;;5072601;28;20464;-72
2024/02/09 13:20:05;;;;;;;2.83;1.90;;;14.00;98.00;;;;;;5072923;28;20848;-74
2024/02/09 13:22:32;;;;;;;5.43;1.80;;;14.00;98.00;;;;;;5055055;28;20481;-80
2024/02/09 13:25:00;;;;;;;2.77;2.10;;;13.90;98.00;;;;;;5072949;28;20456;-77
2024/02/09 13:27:29;;;;;;;5.50;2.07;;;13.80;98.00;;;;;;5072504;28;20451;-77
2024/02/09 13:29:56;;;;;;;4.90;1.87;;;13.70;98.00;;;;;;5072458;28;20456;-78
2024/02/09 13:32:24;;;;;;;3.00;1.90;;;13.70;98.00;;;;;;5071879;28;20470;-77
2024/02/09 13:34:54;;;;;;;2.87;1.93;;;13.60;98.00;;;;;;5072406;28;21033;-78
2024/02/09 13:37:22;;;;;;;4.10;2.20;;;13.60;98.00;;;;;;5054835;28;20452;-78
2024/02/09 13:39:51;;;;;;;2.73;2.00;;;13.60;98.00;;;;;;5071777;28;20479;-76
2024/02/09 13:42:21;;;;;;;8.30;2.40;;;13.60;98.00;;;;;;5072264;28;20458;-77
2024/02/09 13:44:48;;;;;;;5.80;2.17;;;13.50;98.00;;;;;;5072959;28;20481;-77
2024/02/09 13:47:16;;;;;;;5.20;2.00;;;13.40;98.00;;;;;;5072387;28;20466;-78
2024/02/09 13:49:44;;;;;;;3.90;1.90;;;13.30;98.00;;;;;;5054427;28;20463;-78
2024/02/09 13:52:12;;;;;;;2.80;2.00;;;13.20;98.00;;;;;;5072223;28;20474;-78
2024/02/09 13:54:39;;;;;;;2.50;2.00;;;13.20;98.00;;;;;;5071773;28;20455;-78
2024/02/09 13:57:07;;;;;;;4.03;1.90;;;13.20;98.00;;;;;;5072157;28;20463;-77
2024/02/09 13:59:35;;;;;;;3.90;2.10;;;13.20;98.00;;;;;;5072050;28;20858;-77
2024/02/09 14:02:02;;;;;;;7.57;3.77;;;13.10;98.00;;;;;;5072288;28;20466;-77
2024/02/09 14:04:29;;;;;;;7.77;3.90;;;13.10;98.00;;;;;;5071994;28;20455;-77
2024/02/09 14:06:58;;;;;;;7.03;4.10;;;13.00;98.00;;;;;;5071910;28;20453;-77
2024/02/09 14:09:26;;;;;;;6.60;2.87;;;13.10;98.00;;;;;;5072030;28;20494;-77
2024/02/09 14:11:54;;;;;;;6.50;3.10;;;13.00;98.00;;;;;;5072060;28;20460;-77
2024/02/09 14:14:23;;;;;;;5.03;2.43;;;12.90;98.00;;;;;;5071779;28;20452;-77
2024/02/09 14:16:50;;;;;;;4.23;2.60;;;12.80;98.00;;;;;;5071947;28;20893;-77
2024/02/09 14:19:17;;;;;;;5.70;2.60;;;12.80;98.00;;;;;;5071539;28;20491;-78
2024/02/09 14:21:45;;;;;;;3.77;2.53;;;12.70;98.00;;;;;;5071947;28;20456;-78
2024/02/09 14:24:12;;;;;;;3.07;2.10;;;12.60;98.00;;;;;;5071665;28;20514;-78
2024/02/09 14:26:44;;;;;;;2.80;1.97;;;12.60;98.00;;;;;;5071958;28;20450;-78
2024/02/09 14:29:13;;;;;;;4.83;2.00;;;12.50;98.00;;;;;;5071555;28;20463;-78
2024/02/09 14:31:41;;;;;;;5.73;2.30;;;12.50;98.00;;;;;;5071983;28;20538;-78
2024/02/09 14:34:09;;;;;;;4.00;2.30;;;12.60;98.00;;;;;;5071701;28;20456;-77
2024/02/09 14:36:36;;;;;;;4.17;2.33;;;12.60;98.00;;;;;;5071692;28;20460;-78
2024/02/09 14:39:03;;;;;;;3.03;2.10;;;12.50;98.00;;;;;;5072250;28;20451;-77